sensor_id;sensor_type;location;lat;lon;timestamp;pressure;altitude;pressure_sealevel;temperature
64904;BMP280;51401;48.882;12.598;2023-05-07T00:01:10;74376.41;;;12.48
64904;BMP280;51401;48.882;12.598;2023-05-07T00:03:36;74151.09;;;12.49
64904;BMP280;51401;48.882;12.598;2023-05-07T00:06:03;74094.06;;;12.44
64904;BMP280;51401;48.882;12.598;2023-05-07T00:08:28;74093.94;;;12.42
64904;BMP280;51401;48.882;12.598;2023-05-07T00:10:54;74123.78;;;12.41
64904;BMP280;51401;48.882;12.598;2023-05-07T00:13:19;74280.81;;;12.36
64904;BMP280;51401;48.882;12.598;2023-05-07T00:15:44;74257.19;;;12.38
64904;BMP280;51401;48.882;12.598;2023-05-07T00:18:10;74302.13;;;12.39
64904;BMP280;51401;48.882;12.598;2023-05-07T00:20:35;74241.63;;;12.45
64904;BMP280;51401;48.882;12.598;2023-05-07T00:23:00;74350.47;;;12.45
64904;BMP280;51401;48.882;12.598;2023-05-07T00:25:26;74387.13;;;12.46
64904;BMP280;51401;48.882;12.598;2023-05-07T00:27:51;74520.22;;;12.38
64904;BMP280;51401;48.882;12.598;2023-05-07T00:30:16;74518.75;;;12.39
64904;BMP280;51401;48.882;12.598;2023-05-07T00:32:51;74580.66;;;12.39
64904;BMP280;51401;48.882;12.598;2023-05-07T00:35:16;74787.22;;;12.35
64904;BMP280;51401;48.882;12.598;2023-05-07T00:37:41;74995.56;;;12.27
64904;BMP280;51401;48.882;12.598;2023-05-07T00:40:07;75049.72;;;12.34
64904;BMP280;51401;48.882;12.598;2023-05-07T00:42:33;75096.88;;;12.30
64904;BMP280;51401;48.882;12.598;2023-05-07T00:44:58;75087.50;;;12.29
64904;BMP280;51401;48.882;12.598;2023-05-07T00:47:25;75087.31;;;12.26
64904;BMP280;51401;48.882;12.598;2023-05-07T00:49:50;75101.31;;;12.20
64904;BMP280;51401;48.882;12.598;2023-05-07T00:52:17;74995.56;;;12.20
64904;BMP280;51401;48.882;12.598;2023-05-07T00:54:44;74906.09;;;12.16
64904;BMP280;51401;48.882;12.598;2023-05-07T00:57:10;74764.09;;;12.14
64904;BMP280;51401;48.882;12.598;2023-05-07T00:59:36;74586.84;;;12.08
64904;BMP280;51401;48.882;12.598;2023-05-07T01:02:02;74435.91;;;12.02
64904;BMP280;51401;48.882;12.598;2023-05-07T01:04:27;74366.41;;;11.95
64904;BMP280;51401;48.882;12.598;2023-05-07T01:06:55;74409.91;;;11.90
64904;BMP280;51401;48.882;12.598;2023-05-07T01:09:22;74410.13;;;11.85
64904;BMP280;51401;48.882;12.598;2023-05-07T01:11:49;74249.44;;;11.87
64904;BMP280;51401;48.882;12.598;2023-05-07T01:14:15;74184.47;;;11.86
64904;BMP280;51401;48.882;12.598;2023-05-07T01:16:43;73880.22;;;12.09
64904;BMP280;51401;48.882;12.598;2023-05-07T01:19:11;73980.06;;;12.16
64904;BMP280;51401;48.882;12.598;2023-05-07T01:21:39;74148.44;;;12.21
64904;BMP280;51401;48.882;12.598;2023-05-07T01:24:11;74550.44;;;12.19
64904;BMP280;51401;48.882;12.598;2023-05-07T01:26:37;74913.47;;;12.11
64904;BMP280;51401;48.882;12.598;2023-05-07T01:29:02;75208.13;;;12.01
64904;BMP280;51401;48.882;12.598;2023-05-07T01:31:28;75314.75;;;11.99
64904;BMP280;51401;48.882;12.598;2023-05-07T01:33:54;75377.91;;;11.96
64904;BMP280;51401;48.882;12.598;2023-05-07T01:36:21;75357.25;;;11.96
64904;BMP280;51401;48.882;12.598;2023-05-07T01:38:49;75422.78;;;11.90
64904;BMP280;51401;48.882;12.598;2023-05-07T01:41:15;75262.59;;;11.99
64904;BMP280;51401;48.882;12.598;2023-05-07T01:43:41;75272.56;;;11.94
64904;BMP280;51401;48.882;12.598;2023-05-07T01:46:08;75165.97;;;11.95
64904;BMP280;51401;48.882;12.598;2023-05-07T01:48:35;75209.38;;;11.90
64904;BMP280;51401;48.882;12.598;2023-05-07T01:51:01;75135.03;;;11.95
64904;BMP280;51401;48.882;12.598;2023-05-07T01:53:27;75040.53;;;12.01
64904;BMP280;51401;48.882;12.598;2023-05-07T01:55:53;74920.47;;;12.15
64904;BMP280;51401;48.882;12.598;2023-05-07T01:58:21;75021.91;;;12.35
64904;BMP280;51401;48.882;12.598;2023-05-07T02:00:46;75635.63;;;12.32
64904;BMP280;51401;48.882;12.598;2023-05-07T02:03:12;76165.09;;;12.21
64904;BMP280;51401;48.882;12.598;2023-05-07T02:05:37;76590.91;;;12.12
64904;BMP280;51401;48.882;12.598;2023-05-07T02:08:02;76825.25;;;12.03
64904;BMP280;51401;48.882;12.598;2023-05-07T02:10:27;76976.66;;;11.96
64904;BMP280;51401;48.882;12.598;2023-05-07T02:12:53;77143.25;;;11.86
64904;BMP280;51401;48.882;12.598;2023-05-07T02:15:18;77261.41;;;11.72
64904;BMP280;51401;48.882;12.598;2023-05-07T02:20:28;77003.94;;;11.61
64904;BMP280;51401;48.882;12.598;2023-05-07T02:22:53;76387.34;;;11.88
64904;BMP280;51401;48.882;12.598;2023-05-07T02:25:18;75961.66;;;12.08
64904;BMP280;51401;48.882;12.598;2023-05-07T02:27:44;75810.22;;;12.22
64904;BMP280;51401;48.882;12.598;2023-05-07T02:30:09;75970.09;;;12.34
64904;BMP280;51401;48.882;12.598;2023-05-07T02:32:38;76276.84;;;12.47
64904;BMP280;51401;48.882;12.598;2023-05-07T02:35:04;76862.31;;;12.58
64904;BMP280;51401;48.882;12.598;2023-05-07T02:37:29;77525.69;;;12.51
64904;BMP280;51401;48.882;12.598;2023-05-07T02:40:04;78143.25;;;12.58
64904;BMP280;51401;48.882;12.598;2023-05-07T02:42:32;78465.44;;;12.68
64904;BMP280;51401;48.882;12.598;2023-05-07T02:45:04;79038.28;;;12.69
64904;BMP280;51401;48.882;12.598;2023-05-07T02:47:32;79625.72;;;12.57
64904;BMP280;51401;48.882;12.598;2023-05-07T02:49:57;79874.44;;;12.58
64904;BMP280;51401;48.882;12.598;2023-05-07T02:52:23;80112.06;;;12.53
64904;BMP280;51401;48.882;12.598;2023-05-07T02:54:48;80193.19;;;12.50
64904;BMP280;51401;48.882;12.598;2023-05-07T02:57:13;80412.94;;;12.37
64904;BMP280;51401;48.882;12.598;2023-05-07T02:59:39;80439.56;;;12.29
64904;BMP280;51401;48.882;12.598;2023-05-07T03:02:05;80400.56;;;12.18
64904;BMP280;51401;48.882;12.598;2023-05-07T03:04:30;80215.97;;;12.17
64904;BMP280;51401;48.882;12.598;2023-05-07T03:06:55;80010.91;;;12.21
64904;BMP280;51401;48.882;12.598;2023-05-07T03:09:21;79943.97;;;12.12
64904;BMP280;51401;48.882;12.598;2023-05-07T03:11:46;79800.41;;;12.09
64904;BMP280;51401;48.882;12.598;2023-05-07T03:14:12;79698.78;;;12.00
64904;BMP280;51401;48.882;12.598;2023-05-07T03:16:37;79553.09;;;11.92
64904;BMP280;51401;48.882;12.598;2023-05-07T03:19:03;79377.44;;;11.88
64904;BMP280;51401;48.882;12.598;2023-05-07T03:21:34;79199.56;;;11.86
64904;BMP280;51401;48.882;12.598;2023-05-07T03:24:03;78947.06;;;11.93
64904;BMP280;51401;48.882;12.598;2023-05-07T03:26:31;78880.13;;;11.86
64904;BMP280;51401;48.882;12.598;2023-05-07T03:28:56;78886.50;;;11.77
64904;BMP280;51401;48.882;12.598;2023-05-07T03:31:21;78727.53;;;11.84
64904;BMP280;51401;48.882;12.598;2023-05-07T03:33:55;78770.06;;;11.74
64904;BMP280;51401;48.882;12.598;2023-05-07T03:36:22;78658.38;;;11.65
64904;BMP280;51401;48.882;12.598;2023-05-07T03:38:48;78462.22;;;11.56
64904;BMP280;51401;48.882;12.598;2023-05-07T03:41:13;78296.50;;;11.51
64904;BMP280;51401;48.882;12.598;2023-05-07T03:43:38;78201.31;;;11.45
64904;BMP280;51401;48.882;12.598;2023-05-07T03:46:04;78224.69;;;11.34
64904;BMP280;51401;48.882;12.598;2023-05-07T03:48:29;78181.63;;;11.28
64904;BMP280;51401;48.882;12.598;2023-05-07T03:50:56;78039.59;;;11.25
64904;BMP280;51401;48.882;12.598;2023-05-07T03:53:21;77752.66;;;11.27
64904;BMP280;51401;48.882;12.598;2023-05-07T03:55:47;77456.56;;;11.29
64904;BMP280;51401;48.882;12.598;2023-05-07T03:58:12;77196.84;;;11.34
64904;BMP280;51401;48.882;12.598;2023-05-07T04:00:37;76901.28;;;11.42
64904;BMP280;51401;48.882;12.598;2023-05-07T04:03:07;76696.22;;;11.47
64904;BMP280;51401;48.882;12.598;2023-05-07T04:05:35;76489.00;;;11.57
64904;BMP280;51401;48.882;12.598;2023-05-07T04:08:01;76591.00;;;11.56
64904;BMP280;51401;48.882;12.598;2023-05-07T04:10:32;76613.03;;;11.76
64904;BMP280;51401;48.882;12.598;2023-05-07T04:12:58;76800.09;;;11.99
64904;BMP280;51401;48.882;12.598;2023-05-07T04:15:23;77370.44;;;12.06
64904;BMP280;51401;48.882;12.598;2023-05-07T04:17:54;77901.47;;;12.14
64904;BMP280;51401;48.882;12.598;2023-05-07T04:20:20;78440.75;;;12.21
64904;BMP280;51401;48.882;12.598;2023-05-07T04:22:45;79007.03;;;12.19
64904;BMP280;51401;48.882;12.598;2023-05-07T04:25:10;79430.78;;;12.17
64904;BMP280;51401;48.882;12.598;2023-05-07T04:27:35;79734.88;;;12.23
64904;BMP280;51401;48.882;12.598;2023-05-07T04:30:02;79957.53;;;12.37
64904;BMP280;51401;48.882;12.598;2023-05-07T04:32:27;80329.41;;;12.45
64904;BMP280;51401;48.882;12.598;2023-05-07T04:34:54;80733.03;;;12.47
64904;BMP280;51401;48.882;12.598;2023-05-07T04:37:19;81025.38;;;12.52
64904;BMP280;51401;48.882;12.598;2023-05-07T04:39:44;81207.03;;;12.59
64904;BMP280;51401;48.882;12.598;2023-05-07T04:42:14;81416.00;;;12.65
64904;BMP280;51401;48.882;12.598;2023-05-07T04:44:40;81684.78;;;12.75
64904;BMP280;51401;48.882;12.598;2023-05-07T04:47:05;81941.66;;;12.90
64904;BMP280;51401;48.882;12.598;2023-05-07T04:49:31;82173.69;;;13.02
64904;BMP280;51401;48.882;12.598;2023-05-07T04:51:56;82398.81;;;13.12
64904;BMP280;51401;48.882;12.598;2023-05-07T04:54:22;82497.00;;;13.25
64904;BMP280;51401;48.882;12.598;2023-05-07T04:56:47;82457.69;;;13.49
64904;BMP280;51401;48.882;12.598;2023-05-07T04:59:12;82629.06;;;13.81
64904;BMP280;51401;48.882;12.598;2023-05-07T05:01:38;83159.19;;;14.23
64904;BMP280;51401;48.882;12.598;2023-05-07T05:04:03;84153.44;;;14.70
64904;BMP280;51401;48.882;12.598;2023-05-07T05:06:28;84912.88;;;15.15
64904;BMP280;51401;48.882;12.598;2023-05-07T05:08:53;85592.47;;;15.76
64904;BMP280;51401;48.882;12.598;2023-05-07T05:11:19;87139.72;;;16.10
64904;BMP280;51401;48.882;12.598;2023-05-07T05:13:44;87992.31;;;16.38
64904;BMP280;51401;48.882;12.598;2023-05-07T05:16:09;88418.34;;;16.54
64904;BMP280;51401;48.882;12.598;2023-05-07T05:18:35;88508.75;;;16.82
64904;BMP280;51401;48.882;12.598;2023-05-07T05:21:00;88892.75;;;16.94
64904;BMP280;51401;48.882;12.598;2023-05-07T05:23:25;89026.03;;;17.29
64904;BMP280;51401;48.882;12.598;2023-05-07T05:25:55;89431.53;;;17.47
64904;BMP280;51401;48.882;12.598;2023-05-07T05:28:21;89665.28;;;17.61
64904;BMP280;51401;48.882;12.598;2023-05-07T05:30:46;89905.78;;;17.59
64904;BMP280;51401;48.882;12.598;2023-05-07T05:33:11;90131.63;;;17.48
64904;BMP280;51401;48.882;12.598;2023-05-07T05:35:37;90260.16;;;17.10
64904;BMP280;51401;48.882;12.598;2023-05-07T05:38:02;89964.25;;;17.12
64904;BMP280;51401;48.882;12.598;2023-05-07T05:40:28;90115.03;;;16.92
64904;BMP280;51401;48.882;12.598;2023-05-07T05:42:53;89991.97;;;17.01
64904;BMP280;51401;48.882;12.598;2023-05-07T05:45:19;89529.47;;;17.21
64904;BMP280;51401;48.882;12.598;2023-05-07T05:47:44;89726.22;;;17.65
64904;BMP280;51401;48.882;12.598;2023-05-07T05:50:09;90081.50;;;17.73
64904;BMP280;51401;48.882;12.598;2023-05-07T05:52:34;90437.69;;;17.82
64904;BMP280;51401;48.882;12.598;2023-05-07T05:55:00;90543.66;;;17.53
64904;BMP280;51401;48.882;12.598;2023-05-07T05:57:25;90480.56;;;17.60
64904;BMP280;51401;48.882;12.598;2023-05-07T05:59:50;90475.16;;;17.87
64904;BMP280;51401;48.882;12.598;2023-05-07T06:02:16;90666.25;;;18.33
64904;BMP280;51401;48.882;12.598;2023-05-07T06:04:41;90858.38;;;18.83
64904;BMP280;51401;48.882;12.598;2023-05-07T06:07:07;90924.53;;;18.96
64904;BMP280;51401;48.882;12.598;2023-05-07T06:09:33;91037.97;;;19.25
64904;BMP280;51401;48.882;12.598;2023-05-07T06:11:58;91210.81;;;19.06
64904;BMP280;51401;48.882;12.598;2023-05-07T06:14:23;91280.19;;;18.65
64904;BMP280;51401;48.882;12.598;2023-05-07T06:16:48;91176.19;;;18.57
64904;BMP280;51401;48.882;12.598;2023-05-07T06:19:14;91326.41;;;18.23
64904;BMP280;51401;48.882;12.598;2023-05-07T06:21:39;90880.47;;;18.49
64904;BMP280;51401;48.882;12.598;2023-05-07T06:24:05;90812.19;;;18.76
64904;BMP280;51401;48.882;12.598;2023-05-07T06:26:30;90986.81;;;19.11
64904;BMP280;51401;48.882;12.598;2023-05-07T06:28:56;91383.59;;;19.00
64904;BMP280;51401;48.882;12.598;2023-05-07T06:31:21;91496.47;;;19.02
64904;BMP280;51401;48.882;12.598;2023-05-07T06:33:46;91519.91;;;18.76
64904;BMP280;51401;48.882;12.598;2023-05-07T06:36:12;91550.22;;;18.79
64904;BMP280;51401;48.882;12.598;2023-05-07T06:38:37;91528.00;;;19.16
64904;BMP280;51401;48.882;12.598;2023-05-07T06:41:02;91503.03;;;19.15
64904;BMP280;51401;48.882;12.598;2023-05-07T06:43:28;91304.47;;;19.44
64904;BMP280;51401;48.882;12.598;2023-05-07T06:45:53;91425.78;;;19.82
64904;BMP280;51401;48.882;12.598;2023-05-07T06:48:18;91412.72;;;20.24
64904;BMP280;51401;48.882;12.598;2023-05-07T06:50:43;92006.31;;;20.29
64904;BMP280;51401;48.882;12.598;2023-05-07T06:53:09;91706.59;;;19.91
64904;BMP280;51401;48.882;12.598;2023-05-07T06:55:37;91490.59;;;20.17
64904;BMP280;51401;48.882;12.598;2023-05-07T06:58:06;92156.25;;;20.53
64904;BMP280;51401;48.882;12.598;2023-05-07T07:00:32;92311.13;;;20.70
64904;BMP280;51401;48.882;12.598;2023-05-07T07:02:57;92174.75;;;20.44
64904;BMP280;51401;48.882;12.598;2023-05-07T07:05:22;92250.97;;;20.99
64904;BMP280;51401;48.882;12.598;2023-05-07T07:07:48;92301.53;;;20.97
64904;BMP280;51401;48.882;12.598;2023-05-07T07:10:19;92529.25;;;21.30
64904;BMP280;51401;48.882;12.598;2023-05-07T07:12:44;93539.78;;;21.70
64904;BMP280;51401;48.882;12.598;2023-05-07T07:15:10;94758.63;;;21.93
64904;BMP280;51401;48.882;12.598;2023-05-07T07:17:41;96078.66;;;21.93
64904;BMP280;51401;48.882;12.598;2023-05-07T07:20:07;97301.72;;;22.05
64904;BMP280;51401;48.882;12.598;2023-05-07T07:22:33;97553.47;;;22.10
64904;BMP280;51401;48.882;12.598;2023-05-07T07:25:01;97555.69;;;21.89
64904;BMP280;51401;48.882;12.598;2023-05-07T07:27:27;97555.63;;;22.12
64904;BMP280;51401;48.882;12.598;2023-05-07T07:29:52;97476.16;;;21.96
64904;BMP280;51401;48.882;12.598;2023-05-07T07:32:17;97454.88;;;22.33
64904;BMP280;51401;48.882;12.598;2023-05-07T07:34:43;97630.28;;;22.78
64904;BMP280;51401;48.882;12.598;2023-05-07T07:37:08;97626.75;;;22.81
64904;BMP280;51401;48.882;12.598;2023-05-07T07:39:33;97652.06;;;22.87
64904;BMP280;51401;48.882;12.598;2023-05-07T07:41:59;97655.84;;;22.15
64904;BMP280;51401;48.882;12.598;2023-05-07T07:44:25;97659.34;;;22.21
64904;BMP280;51401;48.882;12.598;2023-05-07T07:46:50;97623.41;;;22.15
64904;BMP280;51401;48.882;12.598;2023-05-07T07:49:16;97485.63;;;21.88
64904;BMP280;51401;48.882;12.598;2023-05-07T07:51:42;97335.06;;;20.65
64904;BMP280;51401;48.882;12.598;2023-05-07T07:54:07;97263.56;;;21.09
64904;BMP280;51401;48.882;12.598;2023-05-07T07:56:33;97201.34;;;20.75
64904;BMP280;51401;48.882;12.598;2023-05-07T07:59:01;97035.47;;;21.00
64904;BMP280;51401;48.882;12.598;2023-05-07T08:01:29;96962.19;;;20.70
64904;BMP280;51401;48.882;12.598;2023-05-07T08:03:54;97023.63;;;21.09
64904;BMP280;51401;48.882;12.598;2023-05-07T08:06:19;96986.00;;;20.95
64904;BMP280;51401;48.882;12.598;2023-05-07T08:08:44;97002.16;;;20.82
64904;BMP280;51401;48.882;12.598;2023-05-07T08:11:10;96964.28;;;21.00
64904;BMP280;51401;48.882;12.598;2023-05-07T08:13:36;97032.78;;;20.80
64904;BMP280;51401;48.882;12.598;2023-05-07T08:16:04;96978.38;;;20.97
64904;BMP280;51401;48.882;12.598;2023-05-07T08:18:30;96970.50;;;21.16
64904;BMP280;51401;48.882;12.598;2023-05-07T08:20:55;96994.81;;;21.26
64904;BMP280;51401;48.882;12.598;2023-05-07T08:23:21;96976.50;;;21.17
64904;BMP280;51401;48.882;12.598;2023-05-07T08:25:47;96964.34;;;21.25
64904;BMP280;51401;48.882;12.598;2023-05-07T08:28:22;96951.41;;;21.02
64904;BMP280;51401;48.882;12.598;2023-05-07T08:30:55;96894.59;;;20.47
64904;BMP280;51401;48.882;12.598;2023-05-07T08:33:26;96843.06;;;20.80
64904;BMP280;51401;48.882;12.598;2023-05-07T08:35:52;96791.19;;;21.16
64904;BMP280;51401;48.882;12.598;2023-05-07T08:38:20;96750.44;;;21.78
64904;BMP280;51401;48.882;12.598;2023-05-07T08:40:46;96857.97;;;21.83
64904;BMP280;51401;48.882;12.598;2023-05-07T08:43:14;96804.66;;;21.79
64904;BMP280;51401;48.882;12.598;2023-05-07T08:45:41;96862.63;;;21.99
64904;BMP280;51401;48.882;12.598;2023-05-07T08:48:15;96836.81;;;21.47
64904;BMP280;51401;48.882;12.598;2023-05-07T08:50:40;96782.78;;;21.68
64904;BMP280;51401;48.882;12.598;2023-05-07T08:53:08;96749.03;;;21.16
64904;BMP280;51401;48.882;12.598;2023-05-07T08:55:34;96629.25;;;20.92
64904;BMP280;51401;48.882;12.598;2023-05-07T08:58:00;96639.91;;;20.78
64904;BMP280;51401;48.882;12.598;2023-05-07T09:00:26;96590.22;;;21.32
64904;BMP280;51401;48.882;12.598;2023-05-07T09:02:52;96643.59;;;22.26
64904;BMP280;51401;48.882;12.598;2023-05-07T09:05:18;96923.88;;;22.74
64904;BMP280;51401;48.882;12.598;2023-05-07T09:07:44;97101.13;;;23.37
64904;BMP280;51401;48.882;12.598;2023-05-07T09:10:09;96905.84;;;23.95
64904;BMP280;51401;48.882;12.598;2023-05-07T09:12:37;96873.41;;;24.56
64904;BMP280;51401;48.882;12.598;2023-05-07T09:15:06;97090.84;;;23.44
64904;BMP280;51401;48.882;12.598;2023-05-07T09:17:35;96658.41;;;23.74
64904;BMP280;51401;48.882;12.598;2023-05-07T09:20:07;97135.81;;;23.96
64904;BMP280;51401;48.882;12.598;2023-05-07T09:22:34;97150.38;;;24.49
64904;BMP280;51401;48.882;12.598;2023-05-07T09:25:05;97301.13;;;25.26
64904;BMP280;51401;48.882;12.598;2023-05-07T09:27:31;97674.19;;;25.63
64904;BMP280;51401;48.882;12.598;2023-05-07T09:29:56;97740.63;;;24.97
64904;BMP280;51401;48.882;12.598;2023-05-07T09:32:21;97707.94;;;23.71
64904;BMP280;51401;48.882;12.598;2023-05-07T09:34:47;97184.78;;;23.70
64904;BMP280;51401;48.882;12.598;2023-05-07T09:37:13;97268.34;;;23.71
64904;BMP280;51401;48.882;12.598;2023-05-07T09:39:46;97152.66;;;23.47
64904;BMP280;51401;48.882;12.598;2023-05-07T09:42:12;97201.91;;;24.48
64904;BMP280;51401;48.882;12.598;2023-05-07T09:44:38;97631.91;;;25.13
64904;BMP280;51401;48.882;12.598;2023-05-07T09:47:07;97689.25;;;24.69
64904;BMP280;51401;48.882;12.598;2023-05-07T09:49:39;97688.44;;;23.94
64904;BMP280;51401;48.882;12.598;2023-05-07T09:52:07;97677.78;;;24.83
64904;BMP280;51401;48.882;12.598;2023-05-07T09:54:36;97725.00;;;25.40
64904;BMP280;51401;48.882;12.598;2023-05-07T09:57:03;97715.34;;;25.89
64904;BMP280;51401;48.882;12.598;2023-05-07T09:59:31;97726.25;;;25.91
64904;BMP280;51401;48.882;12.598;2023-05-07T10:01:58;97730.28;;;26.87
64904;BMP280;51401;48.882;12.598;2023-05-07T10:04:25;97757.59;;;26.93
64904;BMP280;51401;48.882;12.598;2023-05-07T10:06:51;97765.00;;;26.24
64904;BMP280;51401;48.882;12.598;2023-05-07T10:09:16;97759.91;;;25.64
64904;BMP280;51401;48.882;12.598;2023-05-07T10:11:42;97755.31;;;24.67
64904;BMP280;51401;48.882;12.598;2023-05-07T10:14:09;97766.44;;;24.27
64904;BMP280;51401;48.882;12.598;2023-05-07T10:16:37;97771.53;;;25.30
64904;BMP280;51401;48.882;12.598;2023-05-07T10:19:03;97771.13;;;25.78
64904;BMP280;51401;48.882;12.598;2023-05-07T10:21:30;97765.59;;;25.46
64904;BMP280;51401;48.882;12.598;2023-05-07T10:24:05;97763.41;;;25.39
64904;BMP280;51401;48.882;12.598;2023-05-07T10:26:40;97765.59;;;25.10
64904;BMP280;51401;48.882;12.598;2023-05-07T10:31:50;97763.06;;;24.26
64904;BMP280;51401;48.882;12.598;2023-05-07T10:34:28;97771.00;;;24.26
64904;BMP280;51401;48.882;12.598;2023-05-07T10:36:55;97765.28;;;24.78
64904;BMP280;51401;48.882;12.598;2023-05-07T10:39:21;97761.94;;;24.58
64904;BMP280;51401;48.882;12.598;2023-05-07T10:41:50;97757.81;;;24.76
64904;BMP280;51401;48.882;12.598;2023-05-07T10:44:28;97753.28;;;25.48
64904;BMP280;51401;48.882;12.598;2023-05-07T10:47:11;97759.03;;;26.45
64904;BMP280;51401;48.882;12.598;2023-05-07T10:52:31;97762.06;;;25.60
64904;BMP280;51401;48.882;12.598;2023-05-07T10:57:49;97775.72;;;25.83
64904;BMP280;51401;48.882;12.598;2023-05-07T11:03:07;97755.78;;;26.04
64904;BMP280;51401;48.882;12.598;2023-05-07T11:05:32;97758.34;;;26.77
64904;BMP280;51401;48.882;12.598;2023-05-07T11:08:03;97764.91;;;26.98
64904;BMP280;51401;48.882;12.598;2023-05-07T11:13:12;97773.63;;;27.04
64904;BMP280;51401;48.882;12.598;2023-05-07T11:15:42;97749.16;;;26.84
64904;BMP280;51401;48.882;12.598;2023-05-07T11:18:10;97757.38;;;26.91
64904;BMP280;51401;48.882;12.598;2023-05-07T11:20:56;97762.19;;;26.55
64904;BMP280;51401;48.882;12.598;2023-05-07T11:26:05;97750.09;;;26.43
64904;BMP280;51401;48.882;12.598;2023-05-07T11:28:31;97762.19;;;26.65
64904;BMP280;51401;48.882;12.598;2023-05-07T11:30:57;97760.53;;;26.95
64904;BMP280;51401;48.882;12.598;2023-05-07T11:33:23;97762.25;;;26.98
64904;BMP280;51401;48.882;12.598;2023-05-07T11:35:50;97771.63;;;26.61
64904;BMP280;51401;48.882;12.598;2023-05-07T11:38:18;97766.13;;;27.13
64904;BMP280;51401;48.882;12.598;2023-05-07T11:40:50;97768.00;;;27.34
64904;BMP280;51401;48.882;12.598;2023-05-07T11:43:19;97756.53;;;26.10
64904;BMP280;51401;48.882;12.598;2023-05-07T11:45:45;97757.41;;;26.86
64904;BMP280;51401;48.882;12.598;2023-05-07T11:48:15;97774.31;;;27.20
64904;BMP280;51401;48.882;12.598;2023-05-07T11:53:20;97782.75;;;27.46
64904;BMP280;51401;48.882;12.598;2023-05-07T11:55:52;97774.06;;;27.29
64904;BMP280;51401;48.882;12.598;2023-05-07T11:58:22;97767.03;;;27.05
64904;BMP280;51401;48.882;12.598;2023-05-07T12:00:54;97771.66;;;26.99
64904;BMP280;51401;48.882;12.598;2023-05-07T12:03:25;97765.97;;;26.27
64904;BMP280;51401;48.882;12.598;2023-05-07T12:05:50;97757.50;;;26.17
64904;BMP280;51401;48.882;12.598;2023-05-07T12:08:16;97775.69;;;25.78
64904;BMP280;51401;48.882;12.598;2023-05-07T12:10:43;97760.78;;;25.91
64904;BMP280;51401;48.882;12.598;2023-05-07T12:13:20;97754.97;;;25.10
64904;BMP280;51401;48.882;12.598;2023-05-07T12:15:45;97759.75;;;25.06
64904;BMP280;51401;48.882;12.598;2023-05-07T12:18:11;97765.50;;;24.49
64904;BMP280;51401;48.882;12.598;2023-05-07T12:20:43;97756.44;;;24.36
64904;BMP280;51401;48.882;12.598;2023-05-07T12:23:11;97752.25;;;24.55
64904;BMP280;51401;48.882;12.598;2023-05-07T12:25:37;97762.03;;;25.18
64904;BMP280;51401;48.882;12.598;2023-05-07T12:28:04;97770.06;;;25.65
64904;BMP280;51401;48.882;12.598;2023-05-07T12:30:42;97757.72;;;26.09
64904;BMP280;51401;48.882;12.598;2023-05-07T12:33:11;97766.09;;;26.59
64904;BMP280;51401;48.882;12.598;2023-05-07T12:35:39;97774.06;;;26.81
64904;BMP280;51401;48.882;12.598;2023-05-07T12:38:13;97767.13;;;26.04
64904;BMP280;51401;48.882;12.598;2023-05-07T12:43:21;97764.06;;;26.38
64904;BMP280;51401;48.882;12.598;2023-05-07T12:45:54;97760.22;;;26.34
64904;BMP280;51401;48.882;12.598;2023-05-07T12:48:20;97752.78;;;26.97
64904;BMP280;51401;48.882;12.598;2023-05-07T12:50:51;97772.97;;;26.19
64904;BMP280;51401;48.882;12.598;2023-05-07T12:53:20;97771.22;;;26.89
64904;BMP280;51401;48.882;12.598;2023-05-07T12:55:47;97774.09;;;27.13
64904;BMP280;51401;48.882;12.598;2023-05-07T12:58:17;97768.25;;;27.36
64904;BMP280;51401;48.882;12.598;2023-05-07T13:00:43;97774.06;;;27.24
64904;BMP280;51401;48.882;12.598;2023-05-07T13:03:09;97762.72;;;28.01
64904;BMP280;51401;48.882;12.598;2023-05-07T13:05:34;97769.09;;;28.32
64904;BMP280;51401;48.882;12.598;2023-05-07T13:08:00;97768.50;;;27.22
64904;BMP280;51401;48.882;12.598;2023-05-07T13:10:26;97767.22;;;27.66
64904;BMP280;51401;48.882;12.598;2023-05-07T13:12:54;97771.00;;;28.37
64904;BMP280;51401;48.882;12.598;2023-05-07T13:15:20;97772.69;;;28.40
64904;BMP280;51401;48.882;12.598;2023-05-07T13:17:46;97768.56;;;27.88
64904;BMP280;51401;48.882;12.598;2023-05-07T13:20:12;97774.44;;;28.32
64904;BMP280;51401;48.882;12.598;2023-05-07T13:22:38;97769.25;;;28.45
64904;BMP280;51401;48.882;12.598;2023-05-07T13:25:03;97757.00;;;28.60
64904;BMP280;51401;48.882;12.598;2023-05-07T13:27:29;97764.41;;;27.98
64904;BMP280;51401;48.882;12.598;2023-05-07T13:29:55;97752.03;;;27.39
64904;BMP280;51401;48.882;12.598;2023-05-07T13:32:21;97754.59;;;27.72
64904;BMP280;51401;48.882;12.598;2023-05-07T13:34:46;97760.22;;;28.08
64904;BMP280;51401;48.882;12.598;2023-05-07T13:37:11;97757.41;;;27.90
64904;BMP280;51401;48.882;12.598;2023-05-07T13:39:37;97762.97;;;28.42
64904;BMP280;51401;48.882;12.598;2023-05-07T13:42:02;97755.72;;;27.92
64904;BMP280;51401;48.882;12.598;2023-05-07T13:44:27;97768.75;;;28.07
64904;BMP280;51401;48.882;12.598;2023-05-07T13:46:53;97751.25;;;28.16
64904;BMP280;51401;48.882;12.598;2023-05-07T13:49:18;97742.81;;;28.47
64904;BMP280;51401;48.882;12.598;2023-05-07T13:51:43;97756.44;;;27.93
64904;BMP280;51401;48.882;12.598;2023-05-07T13:54:08;97752.16;;;27.74
64904;BMP280;51401;48.882;12.598;2023-05-07T13:56:34;97751.00;;;27.69
64904;BMP280;51401;48.882;12.598;2023-05-07T13:58:59;97741.13;;;27.32
64904;BMP280;51401;48.882;12.598;2023-05-07T14:01:27;97748.03;;;27.67
64904;BMP280;51401;48.882;12.598;2023-05-07T14:03:53;97746.03;;;27.84
64904;BMP280;51401;48.882;12.598;2023-05-07T14:06:18;97745.13;;;27.76
64904;BMP280;51401;48.882;12.598;2023-05-07T14:08:46;97751.25;;;27.50
64904;BMP280;51401;48.882;12.598;2023-05-07T14:11:11;97752.31;;;27.09
64904;BMP280;51401;48.882;12.598;2023-05-07T14:13:36;97753.00;;;26.99
64904;BMP280;51401;48.882;12.598;2023-05-07T14:16:04;97744.28;;;26.71
64904;BMP280;51401;48.882;12.598;2023-05-07T14:18:29;97743.09;;;27.21